Portada
METAR-TAF:

METAR-TAF

Aeropuertos :

Gran Canaria, España

Aeropuerto de Gran Canaria

latitud: 27-56N, longitud: 015-23W, altitud: 23 m

Observación

El informe se hizo hace 17 minutos, a las 18:30 UTC
Viento 17 kt del norte-noreste
Temperatura 25°C
Humedad 74%
Presión 1021 hPa
Visibilidad 10 km o más
Escasas nubes a una altura de 2000 ft

METAR: GCLP 171830Z 02017KT 9999 FEW020 25/20 Q1021 NOSIG

Hora: 19:47 (18:47 UTC)

Pronóstico

El informe se hizo hace 4 horas y 47 minutos, a las 14:00 UTC
Pronóstico válido del 17 a las 15 UTC al 18 a las 15 UTC
Viento 18 kt del norte-noreste
Visibilidad 10 km o más
Escasas nubes a una altura de 2000 ft

TAF: GCLP 171400Z 1715/1815 03018KT 9999 FEW020 TX23/1813Z TN21/1806Z

Observaciones y pronósticos meteorológicos de más de 4000 aeropuertos (mensajes METAR y TAF).

Los puntos amarillos y rojos representan las estaciones disponibles.

Ponga el ratón en el punto deseado para ver el nombre de la estación.

Haga clic para ver las observaciones y los pronósticos meteorológicos.

Para cambiar el mapa : haga clic en los botones verdes con una cruz de color negro para hacer un zoom, en el botón verde con un guión para alejar o en las flechas verdes para mapas adyacentes.


METAR-TAF: